createdAt,value
2022-07-25T00:00:28.581Z,67.70
2022-07-25T00:01:30.315Z,67.50
2022-07-25T00:02:28.533Z,67.43
2022-07-25T00:03:28.648Z,67.60
2022-07-25T00:04:28.543Z,67.53
2022-07-25T00:05:28.545Z,67.33
2022-07-25T00:06:28.498Z,68.00
2022-07-25T00:07:28.482Z,67.60
2022-07-25T00:08:28.463Z,67.40
2022-07-25T00:09:28.463Z,67.40
2022-07-25T00:10:28.442Z,66.80
2022-07-25T00:11:28.449Z,67.60
2022-07-25T00:12:28.421Z,67.10
2022-07-25T00:13:28.412Z,67.70
2022-07-25T00:14:28.403Z,66.40
2022-07-25T00:15:28.394Z,67.30
2022-07-25T00:16:28.433Z,67.40
2022-07-25T00:17:28.392Z,66.70
2022-07-25T00:18:28.461Z,66.93
2022-07-25T00:19:28.348Z,66.50
2022-07-25T00:20:28.337Z,67.73
2022-07-25T00:21:28.362Z,68.43
2022-07-25T00:22:28.331Z,67.73
2022-07-25T00:23:28.302Z,67.23
2022-07-25T00:24:28.297Z,67.63
2022-07-25T00:25:28.278Z,67.13
2022-07-25T00:26:28.262Z,67.43
2022-07-25T00:27:28.268Z,66.24
2022-07-25T00:28:28.245Z,67.63
2022-07-25T00:29:28.233Z,67.60
2022-07-25T00:30:28.235Z,66.93
2022-07-25T00:31:28.341Z,66.63
2022-07-25T00:32:28.212Z,67.20
2022-07-25T00:33:28.191Z,66.73
2022-07-25T00:34:28.213Z,66.50
2022-07-25T00:35:28.172Z,67.10
2022-07-25T00:36:28.157Z,66.50
2022-07-25T00:37:28.160Z,65.50
2022-07-25T00:38:28.143Z,65.50
2022-07-25T00:39:28.122Z,66.40
2022-07-25T00:40:28.113Z,67.30
2022-07-25T00:41:28.121Z,67.00
2022-07-25T00:42:28.101Z,66.50
2022-07-25T00:43:28.085Z,66.80
2022-07-25T00:44:28.074Z,67.50
2022-07-25T00:45:28.056Z,67.60
2022-07-25T00:46:28.088Z,67.50
2022-07-25T00:47:28.051Z,66.53
2022-07-25T00:48:28.151Z,67.10
2022-07-25T00:49:28.012Z,67.43
2022-07-25T00:50:28.027Z,67.10
2022-07-25T00:51:27.997Z,67.83
2022-07-25T00:52:27.978Z,67.93
2022-07-25T00:53:27.969Z,68.13
2022-07-25T00:54:27.989Z,68.53
2022-07-25T00:55:27.949Z,68.33
2022-07-25T00:56:27.938Z,68.73
2022-07-25T00:57:27.941Z,68.83
2022-07-25T00:58:27.965Z,68.86
2022-07-25T00:59:27.905Z,68.63
2022-07-25T01:00:27.888Z,68.03
2022-07-25T01:01:27.950Z,68.86
2022-07-25T01:02:27.987Z,69.16
2022-07-25T01:03:27.860Z,69.36
2022-07-25T01:04:27.897Z,70.06
2022-07-25T01:05:27.835Z,69.56
2022-07-25T01:06:27.868Z,68.86
2022-07-25T01:07:27.816Z,68.46
2022-07-25T01:08:27.805Z,68.86
2022-07-25T01:09:27.820Z,69.46
2022-07-25T01:10:27.787Z,69.96
2022-07-25T01:11:27.791Z,70.06
2022-07-25T01:12:27.790Z,69.96
2022-07-25T01:13:27.751Z,69.56
2022-07-25T01:14:27.760Z,70.26
2022-07-25T01:15:27.782Z,70.79
2022-07-25T01:16:27.799Z,70.39
2022-07-25T01:17:27.706Z,70.09
2022-07-25T01:18:27.703Z,70.59
2022-07-25T01:19:27.687Z,71.19
2022-07-25T01:20:27.705Z,70.89
2022-07-25T01:21:27.674Z,70.19
2022-07-25T01:22:27.650Z,71.19
2022-07-25T01:23:27.651Z,71.19
2022-07-25T01:24:27.623Z,71.39
2022-07-25T01:25:27.618Z,70.92
2022-07-25T01:26:27.608Z,71.03
2022-07-25T01:27:27.597Z,71.49
2022-07-25T01:28:27.623Z,70.39
2022-07-25T01:29:27.571Z,70.62
2022-07-25T01:30:27.559Z,69.82
2022-07-25T01:31:27.618Z,70.53
2022-07-25T01:32:27.539Z,69.73
2022-07-25T01:33:27.548Z,70.03
2022-07-25T01:34:27.510Z,70.49
2022-07-25T01:35:27.506Z,69.59
2022-07-25T01:36:27.526Z,70.79
2022-07-25T01:37:27.485Z,70.69
2022-07-25T01:38:27.476Z,70.39
2022-07-25T01:39:27.472Z,69.89
2022-07-25T01:40:27.453Z,69.89
2022-07-25T01:41:27.436Z,70.09
2022-07-25T01:42:27.432Z,70.29
2022-07-25T01:43:27.439Z,70.32
2022-07-25T01:44:27.407Z,71.29
2022-07-25T01:45:27.399Z,70.92
2022-07-25T01:46:27.436Z,71.19
2022-07-25T01:47:27.372Z,71.69
2022-07-25T01:48:27.403Z,71.72
2022-07-25T01:49:27.404Z,70.72
2022-07-25T01:50:27.340Z,71.03
2022-07-25T01:51:27.331Z,71.03
2022-07-25T01:52:27.336Z,70.42
2022-07-25T01:53:27.308Z,71.86
2022-07-25T01:54:27.303Z,71.03
2022-07-25T01:55:27.302Z,71.16
2022-07-25T01:56:27.276Z,70.76
2022-07-25T01:57:31.008Z,71.52
2022-07-25T01:58:27.246Z,71.26
2022-07-25T01:59:27.239Z,72.06
2022-07-25T02:00:27.254Z,72.16
2022-07-25T02:01:27.261Z,72.06
2022-07-25T02:02:27.205Z,71.96
2022-07-25T02:03:27.197Z,71.96
2022-07-25T02:04:27.234Z,71.66
2022-07-25T02:05:27.191Z,72.45
2022-07-25T02:06:27.160Z,72.76
2022-07-25T02:07:27.150Z,72.96
2022-07-25T02:08:27.162Z,73.06
2022-07-25T02:09:27.137Z,74.29
2022-07-25T02:10:27.137Z,73.79
2022-07-25T02:11:27.151Z,73.89
2022-07-25T02:12:27.110Z,73.99
2022-07-25T02:13:27.086Z,73.89
2022-07-25T02:14:27.074Z,74.43
2022-07-25T02:15:27.068Z,74.33
2022-07-25T02:16:29.119Z,73.33
2022-07-25T02:17:27.109Z,74.33
2022-07-25T02:18:27.052Z,74.13
2022-07-25T02:19:27.021Z,74.13
2022-07-25T02:20:27.008Z,74.13
2022-07-25T02:21:26.998Z,73.93
2022-07-25T02:22:26.985Z,73.93
2022-07-25T02:23:26.996Z,73.93
2022-07-25T02:24:26.967Z,73.33
2022-07-25T02:25:26.964Z,74.33
2022-07-25T02:26:26.968Z,74.13
2022-07-25T02:27:26.945Z,74.53
2022-07-25T02:28:26.956Z,73.03
2022-07-25T02:29:26.921Z,71.92
2022-07-25T02:30:26.946Z,72.03
2022-07-25T02:31:26.990Z,71.49
2022-07-25T02:32:26.877Z,72.49
2022-07-25T02:33:26.869Z,72.29
2022-07-25T02:34:26.898Z,71.99
2022-07-25T02:35:26.848Z,72.06
2022-07-25T02:36:26.836Z,71.49
2022-07-25T02:37:26.826Z,70.99
2022-07-25T02:38:26.814Z,70.29
2022-07-25T02:39:26.831Z,70.29
2022-07-25T02:40:26.790Z,70.26
2022-07-25T02:41:26.781Z,70.36
2022-07-25T02:42:26.765Z,69.96
2022-07-25T02:43:26.760Z,69.86
2022-07-25T02:44:26.785Z,69.96
2022-07-25T02:45:26.760Z,69.76
2022-07-25T02:46:26.754Z,69.56
2022-07-25T02:47:26.712Z,69.56
2022-07-25T02:48:26.788Z,68.96
2022-07-25T02:49:26.719Z,69.16
2022-07-25T02:50:26.673Z,68.96
2022-07-25T02:51:26.692Z,69.02
2022-07-25T02:52:26.657Z,68.73
2022-07-25T02:53:47.164Z,68.63
2022-07-25T02:54:27.629Z,68.63
2022-07-25T02:55:26.625Z,68.73
2022-07-25T02:56:26.869Z,69.02
2022-07-25T02:57:26.599Z,68.73
2022-07-25T02:58:26.586Z,68.52
2022-07-25T02:59:32.382Z,68.43
2022-07-25T03:00:27.573Z,68.73
2022-07-25T03:01:26.652Z,68.43
2022-07-25T03:02:26.573Z,68.52
2022-07-25T03:03:26.540Z,69.02
2022-07-25T03:04:26.593Z,69.43
2022-07-25T03:05:26.510Z,68.52
2022-07-25T03:06:26.531Z,68.33
2022-07-25T03:07:26.498Z,68.52
2022-07-25T03:08:26.475Z,68.73
2022-07-25T03:09:26.468Z,68.33
2022-07-25T03:10:26.467Z,68.33
2022-07-25T03:11:26.452Z,69.02
2022-07-25T03:12:26.447Z,69.13
2022-07-25T03:13:26.462Z,68.43
2022-07-25T03:14:26.412Z,68.63
2022-07-25T03:15:26.407Z,68.73
2022-07-25T03:16:26.457Z,68.63
2022-07-25T03:17:26.388Z,68.52
2022-07-25T03:18:26.370Z,68.73
2022-07-25T03:19:26.378Z,69.13
2022-07-25T03:20:26.343Z,68.93
2022-07-25T03:21:26.346Z,68.93
2022-07-25T03:22:26.332Z,69.02
2022-07-25T03:23:26.317Z,69.32
2022-07-25T03:24:26.302Z,68.73
2022-07-25T03:25:26.334Z,68.82
2022-07-25T03:26:26.278Z,69.02
2022-07-25T03:27:26.292Z,69.13
2022-07-25T03:28:26.255Z,69.02
2022-07-25T03:29:26.249Z,68.82
2022-07-25T03:30:26.259Z,69.32
2022-07-25T03:31:26.304Z,69.82
2022-07-25T03:32:26.231Z,69.02
2022-07-25T03:33:26.204Z,69.13
2022-07-25T03:34:26.188Z,68.82
2022-07-25T03:35:26.181Z,69.13
2022-07-25T03:36:26.199Z,69.02
2022-07-25T03:37:26.200Z,69.46
2022-07-25T03:38:26.158Z,69.06
2022-07-25T03:39:26.136Z,69.06
2022-07-25T03:40:26.166Z,69.16
2022-07-25T03:41:26.216Z,69.06
2022-07-25T03:42:26.874Z,68.86
2022-07-25T03:43:26.104Z,69.26
2022-07-25T03:44:26.078Z,69.16
2022-07-25T03:45:26.094Z,69.16
2022-07-25T03:46:26.160Z,69.56
2022-07-25T03:47:26.051Z,69.62
2022-07-25T03:48:26.115Z,69.66
2022-07-25T03:49:26.025Z,69.36
2022-07-25T03:50:26.015Z,69.56
2022-07-25T03:51:26.006Z,69.26
2022-07-25T03:52:26.013Z,69.46
2022-07-25T03:53:26.008Z,69.36
2022-07-25T03:54:25.970Z,69.96
2022-07-25T03:55:25.962Z,70.46
2022-07-25T03:56:25.943Z,69.56
2022-07-25T03:57:25.940Z,69.96
2022-07-25T03:58:25.950Z,69.46
2022-07-25T03:59:25.927Z,69.66
2022-07-25T04:00:25.907Z,69.96
2022-07-25T04:01:26.670Z,69.76
2022-07-25T04:02:25.924Z,69.96
2022-07-25T04:03:25.912Z,70.06
2022-07-25T04:04:25.866Z,69.86
2022-07-25T04:05:25.851Z,69.36
2022-07-25T04:06:25.841Z,69.66
2022-07-25T04:07:25.858Z,69.56
2022-07-25T04:08:25.830Z,69.66
2022-07-25T04:09:25.823Z,69.56
2022-07-25T04:10:25.798Z,69.96
2022-07-25T04:11:25.804Z,69.56
2022-07-25T04:12:25.807Z,69.66
2022-07-25T04:13:25.783Z,69.66
2022-07-25T04:14:25.793Z,69.16
2022-07-25T04:15:25.763Z,69.46
2022-07-25T04:16:25.817Z,69.26
2022-07-25T04:17:25.879Z,69.06
2022-07-25T04:18:25.740Z,69.26
2022-07-25T04:19:27.735Z,69.16
2022-07-25T04:20:25.699Z,69.06
2022-07-25T04:21:25.672Z,68.96
2022-07-25T04:22:25.664Z,68.96
2022-07-25T04:23:25.646Z,69.06
2022-07-25T04:24:25.649Z,69.46
2022-07-25T04:25:25.640Z,69.16
2022-07-25T04:26:25.620Z,69.06
2022-07-25T04:27:25.605Z,69.16
2022-07-25T04:28:25.600Z,69.06
2022-07-25T04:29:25.582Z,69.56
2022-07-25T04:30:25.589Z,69.06
2022-07-25T04:31:25.613Z,69.32
2022-07-25T04:32:25.570Z,69.73
2022-07-25T04:33:25.535Z,69.23
2022-07-25T04:34:25.530Z,69.66
2022-07-25T04:35:25.531Z,69.16
2022-07-25T04:36:25.509Z,68.82
2022-07-25T04:37:25.496Z,69.13
2022-07-25T04:38:25.484Z,69.32
2022-07-25T04:39:25.479Z,69.23
2022-07-25T04:40:25.479Z,69.43
2022-07-25T04:41:25.447Z,69.56
2022-07-25T04:42:25.469Z,69.32
2022-07-25T04:43:25.431Z,69.02
2022-07-25T04:44:25.424Z,69.73
2022-07-25T04:45:25.475Z,69.43
2022-07-25T04:46:25.398Z,69.26
2022-07-25T04:47:25.403Z,69.53
2022-07-25T04:48:25.458Z,69.43
2022-07-25T04:49:25.362Z,69.62
2022-07-25T04:50:25.379Z,69.13
2022-07-25T04:51:25.337Z,69.53
2022-07-25T04:52:25.334Z,69.53
2022-07-25T04:53:25.341Z,69.56
2022-07-25T04:54:25.334Z,69.43
2022-07-25T04:55:25.295Z,69.53
2022-07-25T04:56:25.298Z,69.32
2022-07-25T04:57:25.307Z,69.36
2022-07-25T04:58:25.268Z,69.56
2022-07-25T04:59:25.266Z,69.82
2022-07-25T05:00:25.286Z,69.93
2022-07-25T05:01:25.323Z,69.82
2022-07-25T05:02:25.257Z,70.23
2022-07-25T05:03:25.235Z,69.73
2022-07-25T05:04:25.200Z,69.93
2022-07-25T05:05:25.202Z,69.73
2022-07-25T05:06:25.193Z,70.06
2022-07-25T05:07:25.181Z,69.73
2022-07-25T05:08:25.174Z,69.73
2022-07-25T05:09:25.142Z,69.82
2022-07-25T05:10:25.133Z,69.62
2022-07-25T05:11:25.154Z,69.82
2022-07-25T05:12:25.113Z,69.32
2022-07-25T05:13:25.099Z,69.02
2022-07-25T05:14:25.089Z,69.29
2022-07-25T05:15:25.078Z,68.99
2022-07-25T05:16:25.174Z,69.29
2022-07-25T05:17:25.052Z,69.46
2022-07-25T05:18:25.080Z,70.16
2022-07-25T05:19:25.036Z,68.93
2022-07-25T05:20:25.025Z,69.16
2022-07-25T05:21:25.037Z,67.73
2022-07-25T05:22:28.502Z,67.23
2022-07-25T05:23:24.992Z,67.30
2022-07-25T05:24:24.981Z,67.20
2022-07-25T05:25:24.965Z,66.90
2022-07-25T05:26:24.957Z,66.40
2022-07-25T05:27:24.954Z,66.67
2022-07-25T05:28:24.933Z,66.17
2022-07-25T05:29:24.920Z,66.27
2022-07-25T05:30:24.919Z,65.94
2022-07-25T05:31:24.988Z,65.74
2022-07-25T05:32:24.905Z,65.54
2022-07-25T05:33:24.888Z,64.75
2022-07-25T05:34:24.887Z,65.64
2022-07-25T05:35:24.854Z,65.74
2022-07-25T05:36:24.927Z,65.51
2022-07-25T05:37:24.852Z,64.22
2022-07-25T05:38:24.845Z,64.42
2022-07-25T05:39:24.809Z,64.31
2022-07-25T05:40:24.801Z,64.01
2022-07-25T05:41:24.786Z,64.22
2022-07-25T05:42:24.780Z,63.59
2022-07-25T05:43:24.775Z,63.89
2022-07-25T05:44:24.762Z,63.79
2022-07-25T05:45:24.743Z,63.69
2022-07-25T05:46:25.683Z,63.69
2022-07-25T05:47:24.717Z,63.79
2022-07-25T05:48:24.836Z,63.16
2022-07-25T05:49:24.707Z,63.43
2022-07-25T05:50:24.691Z,63.20
2022-07-25T05:51:27.573Z,63.30
2022-07-25T05:52:24.668Z,61.98
2022-07-25T05:53:24.652Z,61.18
2022-07-25T05:54:24.755Z,60.96
2022-07-25T05:55:24.652Z,61.32
2022-07-25T05:56:24.638Z,60.63
2022-07-25T05:57:24.614Z,60.53
2022-07-25T05:58:29.376Z,59.93
2022-07-25T05:59:24.587Z,59.70
2022-07-25T06:00:24.602Z,59.70
2022-07-25T06:01:24.652Z,59.67
2022-07-25T06:02:24.746Z,59.51
2022-07-25T06:03:24.635Z,60.63
2022-07-25T06:04:27.253Z,61.12
2022-07-25T06:05:24.539Z,61.52
2022-07-25T06:06:24.517Z,62.71
2022-07-25T06:07:24.526Z,60.33
2022-07-25T06:08:24.934Z,61.52
2022-07-25T06:09:24.479Z,60.83
2022-07-25T06:10:24.488Z,61.94
2022-07-25T06:11:24.486Z,62.74
2022-07-25T06:12:24.560Z,62.07
2022-07-25T06:13:24.436Z,63.37
2022-07-25T06:14:24.432Z,63.17
2022-07-25T06:15:26.828Z,63.30
2022-07-25T06:16:24.475Z,62.64
2022-07-25T06:17:27.993Z,61.69
2022-07-25T06:18:25.387Z,59.75
2022-07-25T06:19:24.373Z,58.63
2022-07-25T06:20:24.367Z,58.11
2022-07-25T06:21:24.371Z,57.41
2022-07-25T06:22:24.350Z,57.95
2022-07-25T06:23:27.585Z,55.97
2022-07-25T06:24:24.320Z,55.87
2022-07-25T06:25:24.305Z,56.46
2022-07-25T06:26:24.312Z,56.17
2022-07-25T06:27:29.112Z,55.47
2022-07-25T06:28:25.275Z,55.80
2022-07-25T06:29:24.263Z,57.48
2022-07-25T06:30:24.264Z,57.12
2022-07-25T06:31:24.269Z,57.61
2022-07-25T06:32:24.246Z,56.95
2022-07-25T06:33:24.229Z,57.54
2022-07-25T06:34:28.490Z,57.93
2022-07-25T06:35:24.207Z,57.34
2022-07-25T06:36:24.214Z,56.42
2022-07-25T06:37:25.190Z,56.99
2022-07-25T06:38:24.170Z,56.57
2022-07-25T06:39:24.151Z,54.63
2022-07-25T06:40:24.177Z,54.53
2022-07-25T06:41:24.139Z,53.72
2022-07-25T06:42:24.140Z,53.52
2022-07-25T06:43:24.110Z,53.52
2022-07-25T06:44:24.104Z,52.76
2022-07-25T06:45:25.313Z,54.41
2022-07-25T06:46:24.137Z,54.21
2022-07-25T06:47:24.082Z,52.70
2022-07-25T06:48:24.083Z,52.41
2022-07-25T06:49:24.043Z,53.86
2022-07-25T06:50:24.177Z,51.99
2022-07-25T06:51:24.027Z,54.03
2022-07-25T06:52:24.015Z,52.46
2022-07-25T06:53:24.064Z,53.34
2022-07-25T06:54:24.026Z,53.91
2022-07-25T06:55:23.981Z,52.33
2022-07-25T06:56:23.976Z,52.63
2022-07-25T06:57:23.973Z,51.97
2022-07-25T06:58:24.494Z,51.77
2022-07-25T06:59:23.960Z,51.69
2022-07-25T07:00:24.075Z,52.48
2022-07-25T07:01:23.958Z,52.66
2022-07-25T07:02:23.914Z,52.39
2022-07-25T07:03:23.965Z,52.11
2022-07-25T07:04:23.900Z,52.14
2022-07-25T07:05:23.871Z,52.34
2022-07-25T07:06:23.865Z,52.83
2022-07-25T07:07:23.847Z,52.26
2022-07-25T07:08:23.866Z,52.86
2022-07-25T07:09:23.848Z,52.88
2022-07-25T07:10:23.952Z,54.44
2022-07-25T07:11:23.806Z,53.97
2022-07-25T07:12:23.805Z,53.47
2022-07-25T07:13:24.643Z,54.17
2022-07-25T07:14:23.811Z,54.27
2022-07-25T07:15:23.762Z,54.36
2022-07-25T07:16:23.871Z,54.27
2022-07-25T07:17:23.743Z,55.05
2022-07-25T07:18:23.730Z,55.45
2022-07-25T07:19:23.747Z,54.46
2022-07-25T07:20:23.711Z,55.45
2022-07-25T07:21:23.699Z,55.97
2022-07-25T07:22:23.691Z,53.99
2022-07-25T07:23:24.548Z,55.38
2022-07-25T07:24:24.568Z,56.07
2022-07-25T07:25:23.670Z,55.75
2022-07-25T07:26:23.650Z,56.76
2022-07-25T07:27:23.659Z,57.16
2022-07-25T07:28:23.629Z,56.86
2022-07-25T07:29:23.618Z,56.57
2022-07-25T07:30:27.278Z,55.77
2022-07-25T07:31:24.706Z,55.18
2022-07-25T07:32:23.648Z,56.17
2022-07-25T07:33:23.563Z,55.58
2022-07-25T07:34:23.557Z,56.57
2022-07-25T07:35:23.586Z,55.90
2022-07-25T07:36:23.560Z,55.30
2022-07-25T07:37:23.522Z,56.13
2022-07-25T07:38:23.512Z,55.83
2022-07-25T07:39:23.503Z,56.42
2022-07-25T07:40:23.494Z,55.85
2022-07-25T07:41:23.492Z,57.24
2022-07-25T07:42:23.474Z,55.96
2022-07-25T07:43:29.380Z,57.44
2022-07-25T07:44:24.458Z,57.76
2022-07-25T07:45:23.447Z,56.68
2022-07-25T07:46:23.487Z,56.87
2022-07-25T07:47:23.434Z,57.64
2022-07-25T07:48:23.406Z,57.93
2022-07-25T07:49:23.472Z,57.84
2022-07-25T07:50:23.416Z,58.43
2022-07-25T07:51:23.386Z,58.03
2022-07-25T07:52:23.365Z,57.54
2022-07-25T07:53:23.350Z,57.61
2022-07-25T07:54:23.342Z,57.31
2022-07-25T07:55:23.325Z,57.18
2022-07-25T07:56:23.370Z,56.49
2022-07-25T07:57:23.368Z,56.59
2022-07-25T07:58:23.302Z,57.06
2022-07-25T07:59:23.280Z,55.38
2022-07-25T08:00:23.280Z,57.53
2022-07-25T08:01:23.277Z,57.62
2022-07-25T08:02:23.311Z,58.02
2022-07-25T08:03:23.299Z,56.54
2022-07-25T08:04:23.234Z,54.29
2022-07-25T08:05:23.225Z,56.27
2022-07-25T08:06:23.218Z,56.07
2022-07-25T08:07:23.239Z,55.60
2022-07-25T08:08:26.633Z,56.79
2022-07-25T08:09:24.176Z,55.51
2022-07-25T08:10:23.187Z,56.49
2022-07-25T08:11:23.158Z,56.00
2022-07-25T08:12:23.207Z,56.59
2022-07-25T08:13:23.141Z,57.98
2022-07-25T08:14:23.122Z,57.48
2022-07-25T08:15:23.141Z,56.20
2022-07-25T08:16:23.133Z,57.51
2022-07-25T08:17:28.341Z,57.48
2022-07-25T08:18:24.092Z,57.88
2022-07-25T08:19:23.070Z,57.48
2022-07-25T08:20:37.591Z,56.40
2022-07-25T08:21:24.088Z,57.78
2022-07-25T08:22:23.036Z,56.99
2022-07-25T08:23:23.025Z,57.39
2022-07-25T08:24:23.013Z,56.79
2022-07-25T08:25:23.009Z,57.90
2022-07-25T08:26:23.006Z,58.97
2022-07-25T08:27:22.983Z,57.39
2022-07-25T08:28:22.966Z,58.47
2022-07-25T08:29:28.043Z,58.01
2022-07-25T08:30:23.947Z,58.60
2022-07-25T08:31:23.087Z,58.60
2022-07-25T08:32:22.931Z,57.31
2022-07-25T08:33:22.950Z,57.61
2022-07-25T08:34:22.904Z,57.78
2022-07-25T08:35:22.900Z,57.39
2022-07-25T08:36:22.881Z,58.47
2022-07-25T08:37:22.873Z,58.05
2022-07-25T08:38:22.900Z,58.15
2022-07-25T08:39:22.883Z,57.73
2022-07-25T08:40:22.840Z,57.23
2022-07-25T08:41:24.687Z,56.44
2022-07-25T08:42:22.819Z,56.24
2022-07-25T08:43:22.852Z,57.53
2022-07-25T08:44:22.820Z,56.14
2022-07-25T08:45:22.830Z,55.55
2022-07-25T08:46:22.804Z,55.92
2022-07-25T08:47:22.776Z,56.63
2022-07-25T08:48:22.770Z,56.12
2022-07-25T08:49:22.746Z,56.51
2022-07-25T08:50:22.765Z,55.03
2022-07-25T08:51:22.752Z,57.20
2022-07-25T08:52:22.709Z,56.21
2022-07-25T08:53:37.680Z,58.16
2022-07-25T08:54:23.690Z,57.37
2022-07-25T08:55:22.683Z,55.37
2022-07-25T08:56:22.692Z,56.53
2022-07-25T08:57:22.660Z,56.30
2022-07-25T08:58:22.642Z,56.01
2022-07-25T08:59:22.630Z,55.68
2022-07-25T09:00:22.614Z,54.77
2022-07-25T09:01:22.676Z,54.45
2022-07-25T09:02:22.887Z,53.76
2022-07-25T09:03:22.628Z,54.35
2022-07-25T09:04:22.578Z,52.38
2022-07-25T09:05:22.568Z,52.68
2022-07-25T09:06:22.553Z,54.84
2022-07-25T09:07:22.547Z,54.25
2022-07-25T09:08:22.542Z,53.27
2022-07-25T09:09:22.524Z,54.05
2022-07-25T09:10:22.506Z,54.05
2022-07-25T09:11:22.544Z,54.55
2022-07-25T09:12:25.948Z,53.93
2022-07-25T09:13:22.555Z,53.56
2022-07-25T09:14:22.472Z,52.87
2022-07-25T09:15:22.457Z,53.88
2022-07-25T09:16:22.487Z,54.11
2022-07-25T09:17:27.388Z,55.98
2022-07-25T09:18:23.466Z,56.40
2022-07-25T09:19:22.425Z,54.93
2022-07-25T09:20:22.399Z,56.01
2022-07-25T09:21:22.390Z,56.13
2022-07-25T09:22:22.377Z,55.74
2022-07-25T09:23:22.391Z,56.46
2022-07-25T09:24:22.372Z,58.20
2022-07-25T09:25:22.348Z,56.50
2022-07-25T09:26:22.336Z,56.01
2022-07-25T09:27:22.355Z,55.91
2022-07-25T09:28:22.310Z,56.30
2022-07-25T09:29:22.327Z,55.29
2022-07-25T09:30:22.321Z,56.01
2022-07-25T09:31:22.306Z,56.80
2022-07-25T09:32:22.265Z,56.60
2022-07-25T09:33:22.259Z,55.71
2022-07-25T09:34:25.523Z,56.23
2022-07-25T09:35:22.272Z,56.01
2022-07-25T09:36:22.250Z,56.27
2022-07-25T09:37:22.222Z,58.02
2022-07-25T09:38:22.215Z,55.26
2022-07-25T09:39:22.209Z,54.68
2022-07-25T09:40:22.208Z,55.95
2022-07-25T09:41:22.176Z,55.19
2022-07-25T09:42:22.194Z,55.36
2022-07-25T09:43:22.155Z,53.96
2022-07-25T09:44:22.153Z,55.53
2022-07-25T09:45:22.131Z,55.01
2022-07-25T09:46:22.177Z,53.93
2022-07-25T09:47:22.107Z,53.81
2022-07-25T09:48:22.096Z,53.70
2022-07-25T09:49:22.101Z,54.39
2022-07-25T09:50:22.097Z,52.70
2022-07-25T09:51:22.061Z,53.27
2022-07-25T09:52:22.049Z,54.54
2022-07-25T09:53:22.047Z,53.85
2022-07-25T09:54:22.026Z,54.57
2022-07-25T09:55:22.057Z,52.99
2022-07-25T09:56:22.008Z,52.62
2022-07-25T09:57:21.997Z,54.30
2022-07-25T09:58:21.983Z,56.24
2022-07-25T09:59:21.981Z,55.45
2022-07-25T10:00:21.989Z,56.24
2022-07-25T10:01:21.987Z,55.23
2022-07-25T10:02:22.015Z,55.99
2022-07-25T10:03:21.929Z,54.22
2022-07-25T10:04:21.921Z,54.88
2022-07-25T10:05:21.906Z,54.10
2022-07-25T10:06:21.927Z,54.68
2022-07-25T10:07:21.908Z,55.86
2022-07-25T10:08:21.885Z,55.37
2022-07-25T10:09:21.866Z,53.41
2022-07-25T10:10:21.862Z,54.68
2022-07-25T10:11:21.851Z,53.80
2022-07-25T10:12:21.870Z,54.02
2022-07-25T10:13:21.823Z,55.30
2022-07-25T10:14:21.811Z,52.94
2022-07-25T10:15:21.812Z,53.83
2022-07-25T10:16:21.872Z,55.13
2022-07-25T10:17:21.868Z,54.05
2022-07-25T10:18:21.770Z,53.78
2022-07-25T10:19:21.758Z,54.27
2022-07-25T10:20:21.747Z,53.78
2022-07-25T10:21:28.302Z,56.63
2022-07-25T10:22:39.748Z,57.49
2022-07-25T10:23:22.722Z,57.39
2022-07-25T10:24:21.702Z,54.32
2022-07-25T10:25:21.692Z,55.52
2022-07-25T10:26:21.678Z,53.27
2022-07-25T10:27:21.710Z,54.05
2022-07-25T10:28:21.665Z,54.37
2022-07-25T10:29:21.652Z,56.31
2022-07-25T10:30:21.641Z,53.68
2022-07-25T10:31:21.855Z,55.75
2022-07-25T10:32:21.945Z,54.27
2022-07-25T10:33:21.655Z,52.50
2022-07-25T10:34:21.598Z,53.19
2022-07-25T10:35:21.589Z,55.75
2022-07-25T10:36:21.596Z,53.98
2022-07-25T10:37:21.594Z,53.98
2022-07-25T10:38:21.556Z,54.27
2022-07-25T10:39:21.562Z,56.60
2022-07-25T10:40:21.534Z,53.75
2022-07-25T10:41:21.528Z,54.02
2022-07-25T10:42:21.515Z,55.69
2022-07-25T10:43:21.545Z,52.15
2022-07-25T10:44:21.498Z,52.35
2022-07-25T10:45:21.485Z,54.22
2022-07-25T10:46:21.634Z,54.29
2022-07-25T10:47:21.487Z,52.35
2022-07-25T10:48:21.470Z,51.96
2022-07-25T10:49:29.066Z,54.12
2022-07-25T10:50:40.217Z,52.06
2022-07-25T10:51:22.418Z,52.58
2022-07-25T10:52:21.415Z,51.91
2022-07-25T10:53:21.455Z,54.08
2022-07-25T10:54:21.426Z,54.08
2022-07-25T10:55:21.406Z,53.39
2022-07-25T10:56:21.374Z,52.58
2022-07-25T10:57:21.361Z,51.98
2022-07-25T10:58:21.339Z,54.44
2022-07-25T10:59:21.344Z,53.23
2022-07-25T11:00:21.318Z,54.39
2022-07-25T11:01:21.402Z,51.25
2022-07-25T11:02:21.349Z,51.93
2022-07-25T11:03:21.301Z,50.88
2022-07-25T11:04:21.290Z,52.15
2022-07-25T11:05:21.304Z,51.89
2022-07-25T11:06:21.260Z,52.01
2022-07-25T11:07:21.246Z,52.60
2022-07-25T11:08:22.581Z,53.22
2022-07-25T11:09:26.491Z,54.20
2022-07-25T11:10:22.222Z,55.06
2022-07-25T11:11:21.226Z,51.93
2022-07-25T11:12:21.218Z,51.76
2022-07-25T11:13:21.192Z,51.86
2022-07-25T11:14:21.225Z,52.06
2022-07-25T11:15:21.164Z,54.00
2022-07-25T11:16:21.207Z,50.54
2022-07-25T11:17:21.150Z,50.44
2022-07-25T11:18:21.152Z,52.28
2022-07-25T11:19:21.121Z,50.32
2022-07-25T11:20:21.118Z,49.53
2022-07-25T11:21:21.112Z,51.30
2022-07-25T11:22:21.087Z,51.37
2022-07-25T11:23:21.080Z,51.84
2022-07-25T11:24:21.091Z,52.03
2022-07-25T11:25:21.070Z,49.38
2022-07-25T11:26:21.057Z,49.41
2022-07-25T11:27:21.040Z,49.70
2022-07-25T11:28:21.023Z,48.77
2022-07-25T11:29:21.019Z,49.58
2022-07-25T11:30:21.020Z,50.37
2022-07-25T11:31:21.063Z,49.77
2022-07-25T11:32:21.101Z,50.26
2022-07-25T11:33:20.976Z,50.16
2022-07-25T11:34:20.958Z,50.56
2022-07-25T11:35:20.949Z,49.68
2022-07-25T11:36:21.014Z,49.50
2022-07-25T11:37:20.939Z,51.57
2022-07-25T11:38:20.946Z,53.61
2022-07-25T11:39:20.910Z,51.25
2022-07-25T11:40:20.896Z,53.88
2022-07-25T11:41:20.884Z,52.11
2022-07-25T11:42:20.890Z,50.04
2022-07-25T11:43:20.879Z,50.37
2022-07-25T11:44:20.849Z,49.99
2022-07-25T11:45:20.842Z,52.85
2022-07-25T11:46:20.923Z,52.45
2022-07-25T11:47:20.821Z,53.74
2022-07-25T11:48:20.814Z,51.07
2022-07-25T11:49:20.900Z,49.87
2022-07-25T11:50:20.786Z,50.66
2022-07-25T11:51:20.792Z,52.11
2022-07-25T11:52:20.800Z,50.63
2022-07-25T11:53:20.762Z,51.12
2022-07-25T11:54:20.749Z,50.32
2022-07-25T11:55:20.737Z,49.85
2022-07-25T11:56:41.769Z,50.26
2022-07-25T11:57:21.711Z,50.07
2022-07-25T11:58:20.717Z,50.39
2022-07-25T11:59:20.693Z,50.12
2022-07-25T12:00:20.681Z,51.59
2022-07-25T12:01:20.676Z,52.68
2022-07-25T12:02:20.791Z,53.34
2022-07-25T12:03:21.113Z,52.43
2022-07-25T12:04:20.638Z,51.25
2022-07-25T12:05:20.628Z,51.25
2022-07-25T12:06:20.618Z,49.01
2022-07-25T12:07:20.626Z,49.90
2022-07-25T12:08:20.596Z,50.29
2022-07-25T12:09:20.586Z,51.40
2022-07-25T12:10:20.571Z,50.71
2022-07-25T12:11:20.562Z,50.31
2022-07-25T12:12:20.562Z,50.46
2022-07-25T12:13:20.560Z,52.56
2022-07-25T12:14:20.558Z,54.30
2022-07-25T12:15:20.547Z,54.40
2022-07-25T12:16:20.579Z,54.11
2022-07-25T12:17:20.508Z,53.71
2022-07-25T12:18:20.507Z,54.70
2022-07-25T12:19:20.480Z,54.50
2022-07-25T12:20:20.469Z,52.43
2022-07-25T12:21:20.467Z,52.43
2022-07-25T12:22:20.443Z,53.22
2022-07-25T12:23:20.449Z,52.14
2022-07-25T12:24:20.427Z,53.44
2022-07-25T12:25:20.414Z,54.65
2022-07-25T12:26:20.432Z,54.28
2022-07-25T12:27:20.405Z,54.88
2022-07-25T12:28:20.402Z,55.35
2022-07-25T12:29:20.374Z,54.09
2022-07-25T12:30:20.361Z,54.65
2022-07-25T12:31:20.394Z,55.44
2022-07-25T12:32:20.340Z,53.27
2022-07-25T12:33:20.381Z,53.96
2022-07-25T12:34:20.319Z,54.26
2022-07-25T12:35:20.304Z,53.99
2022-07-25T12:36:20.329Z,55.57
2022-07-25T12:37:20.281Z,56.65
2022-07-25T12:38:20.289Z,56.65
2022-07-25T12:39:20.263Z,56.16
2022-07-25T12:40:20.270Z,55.77
2022-07-25T12:41:20.244Z,54.78
2022-07-25T12:42:20.256Z,53.99
2022-07-25T12:43:20.228Z,55.87
2022-07-25T12:44:20.209Z,55.87
2022-07-25T12:45:20.202Z,55.00
2022-07-25T12:46:20.272Z,56.68
2022-07-25T12:47:20.172Z,56.98
2022-07-25T12:48:20.184Z,56.41
2022-07-25T12:49:20.208Z,57.60
2022-07-25T12:50:20.141Z,57.20
2022-07-25T12:51:20.133Z,57.50
2022-07-25T12:52:20.122Z,58.88